sensor_id;sensor_type;location;lat;lon;timestamp;P1;durP1;ratioP1;P2;durP2;ratioP2
62584;SDS011;48643;51.670;5.808;2023-04-04T00:00:28;7.25;;;2.88;;
62584;SDS011;48643;51.670;5.808;2023-04-04T00:02:55;5.72;;;2.65;;
62584;SDS011;48643;51.670;5.808;2023-04-04T00:05:22;6.70;;;2.60;;
62584;SDS011;48643;51.670;5.808;2023-04-04T00:07:49;7.25;;;2.70;;
62584;SDS011;48643;51.670;5.808;2023-04-04T00:10:16;5.85;;;2.78;;
62584;SDS011;48643;51.670;5.808;2023-04-04T00:12:42;5.47;;;2.63;;
62584;SDS011;48643;51.670;5.808;2023-04-04T00:15:09;6.47;;;2.70;;
62584;SDS011;48643;51.670;5.808;2023-04-04T00:17:37;6.40;;;2.80;;
62584;SDS011;48643;51.670;5.808;2023-04-04T00:20:04;4.85;;;2.45;;
62584;SDS011;48643;51.670;5.808;2023-04-04T00:22:31;6.03;;;2.70;;
62584;SDS011;48643;51.670;5.808;2023-04-04T00:24:58;5.82;;;2.67;;
62584;SDS011;48643;51.670;5.808;2023-04-04T00:27:25;6.63;;;2.60;;
62584;SDS011;48643;51.670;5.808;2023-04-04T00:29:52;5.68;;;2.30;;
62584;SDS011;48643;51.670;5.808;2023-04-04T00:32:19;5.47;;;2.60;;
62584;SDS011;48643;51.670;5.808;2023-04-04T00:34:52;6.43;;;2.60;;
62584;SDS011;48643;51.670;5.808;2023-04-04T00:37:20;5.20;;;2.53;;
62584;SDS011;48643;51.670;5.808;2023-04-04T00:39:47;5.50;;;2.30;;
62584;SDS011;48643;51.670;5.808;2023-04-04T00:42:15;4.55;;;2.28;;
62584;SDS011;48643;51.670;5.808;2023-04-04T00:44:42;6.90;;;2.47;;
62584;SDS011;48643;51.670;5.808;2023-04-04T00:47:09;5.72;;;3.40;;
62584;SDS011;48643;51.670;5.808;2023-04-04T00:49:36;6.97;;;3.08;;
62584;SDS011;48643;51.670;5.808;2023-04-04T00:52:03;4.88;;;2.75;;
62584;SDS011;48643;51.670;5.808;2023-04-04T00:54:32;4.60;;;2.63;;
62584;SDS011;48643;51.670;5.808;2023-04-04T00:57:00;4.88;;;3.00;;
62584;SDS011;48643;51.670;5.808;2023-04-04T00:59:28;6.40;;;2.97;;
62584;SDS011;48643;51.670;5.808;2023-04-04T01:01:55;5.05;;;3.10;;
62584;SDS011;48643;51.670;5.808;2023-04-04T01:04:23;5.55;;;3.63;;
62584;SDS011;48643;51.670;5.808;2023-04-04T01:06:50;5.63;;;3.53;;
62584;SDS011;48643;51.670;5.808;2023-04-04T01:09:17;5.15;;;3.80;;
62584;SDS011;48643;51.670;5.808;2023-04-04T01:11:44;5.03;;;3.80;;
62584;SDS011;48643;51.670;5.808;2023-04-04T01:14:11;5.03;;;2.35;;
62584;SDS011;48643;51.670;5.808;2023-04-04T01:16:38;6.57;;;2.88;;
62584;SDS011;48643;51.670;5.808;2023-04-04T01:19:08;6.57;;;5.45;;
62584;SDS011;48643;51.670;5.808;2023-04-04T01:21:39;4.00;;;2.40;;
62584;SDS011;48643;51.670;5.808;2023-04-04T01:24:06;3.88;;;2.80;;
62584;SDS011;48643;51.670;5.808;2023-04-04T01:26:46;6.32;;;2.33;;
62584;SDS011;48643;51.670;5.808;2023-04-04T01:29:13;5.88;;;2.47;;
62584;SDS011;48643;51.670;5.808;2023-04-04T01:31:41;4.22;;;2.15;;
62584;SDS011;48643;51.670;5.808;2023-04-04T01:34:31;5.15;;;2.40;;
62584;SDS011;48643;51.670;5.808;2023-04-04T01:37:18;4.03;;;2.30;;
62584;SDS011;48643;51.670;5.808;2023-04-04T01:39:55;3.75;;;2.22;;
62584;SDS011;48643;51.670;5.808;2023-04-04T01:42:25;6.75;;;2.17;;
62584;SDS011;48643;51.670;5.808;2023-04-04T01:44:58;3.40;;;2.05;;
62584;SDS011;48643;51.670;5.808;2023-04-04T01:47:36;5.45;;;2.30;;
62584;SDS011;48643;51.670;5.808;2023-04-04T01:50:08;4.53;;;2.20;;
62584;SDS011;48643;51.670;5.808;2023-04-04T01:52:36;4.38;;;2.10;;
62584;SDS011;48643;51.670;5.808;2023-04-04T01:55:04;4.78;;;2.05;;
62584;SDS011;48643;51.670;5.808;2023-04-04T01:57:32;4.82;;;2.17;;
62584;SDS011;48643;51.670;5.808;2023-04-04T01:59:59;4.18;;;2.20;;
62584;SDS011;48643;51.670;5.808;2023-04-04T02:02:28;6.70;;;2.58;;
62584;SDS011;48643;51.670;5.808;2023-04-04T02:04:55;5.93;;;2.47;;
62584;SDS011;48643;51.670;5.808;2023-04-04T02:07:21;5.22;;;2.30;;
62584;SDS011;48643;51.670;5.808;2023-04-04T02:09:49;7.55;;;2.28;;
62584;SDS011;48643;51.670;5.808;2023-04-04T02:12:16;3.47;;;2.05;;
62584;SDS011;48643;51.670;5.808;2023-04-04T02:14:43;5.43;;;2.45;;
62584;SDS011;48643;51.670;5.808;2023-04-04T02:17:10;4.10;;;2.10;;
62584;SDS011;48643;51.670;5.808;2023-04-04T02:19:37;8.30;;;2.20;;
62584;SDS011;48643;51.670;5.808;2023-04-04T02:22:04;5.15;;;2.20;;
62584;SDS011;48643;51.670;5.808;2023-04-04T02:24:31;5.38;;;2.45;;
62584;SDS011;48643;51.670;5.808;2023-04-04T02:26:58;4.15;;;2.40;;
62584;SDS011;48643;51.670;5.808;2023-04-04T02:29:25;4.75;;;2.20;;
62584;SDS011;48643;51.670;5.808;2023-04-04T02:31:51;5.00;;;2.38;;
62584;SDS011;48643;51.670;5.808;2023-04-04T02:34:19;5.22;;;2.00;;
62584;SDS011;48643;51.670;5.808;2023-04-04T02:36:49;9.18;;;2.20;;
62584;SDS011;48643;51.670;5.808;2023-04-04T02:39:17;5.70;;;2.35;;
62584;SDS011;48643;51.670;5.808;2023-04-04T02:41:44;6.85;;;2.17;;
62584;SDS011;48643;51.670;5.808;2023-04-04T02:44:11;3.50;;;2.30;;
62584;SDS011;48643;51.670;5.808;2023-04-04T02:46:38;7.22;;;2.13;;
62584;SDS011;48643;51.670;5.808;2023-04-04T02:49:07;5.10;;;2.22;;
62584;SDS011;48643;51.670;5.808;2023-04-04T02:51:36;3.55;;;2.08;;
62584;SDS011;48643;51.670;5.808;2023-04-04T02:54:03;5.13;;;2.42;;
62584;SDS011;48643;51.670;5.808;2023-04-04T02:56:36;3.15;;;2.30;;
62584;SDS011;48643;51.670;5.808;2023-04-04T02:59:04;3.90;;;2.10;;
62584;SDS011;48643;51.670;5.808;2023-04-04T03:01:31;6.78;;;2.42;;
62584;SDS011;48643;51.670;5.808;2023-04-04T03:04:01;6.97;;;2.28;;
62584;SDS011;48643;51.670;5.808;2023-04-04T03:06:31;7.68;;;2.30;;
62584;SDS011;48643;51.670;5.808;2023-04-04T03:08:59;4.18;;;2.30;;
62584;SDS011;48643;51.670;5.808;2023-04-04T03:11:27;6.15;;;2.22;;
62584;SDS011;48643;51.670;5.808;2023-04-04T03:13:54;3.72;;;2.58;;
62584;SDS011;48643;51.670;5.808;2023-04-04T03:16:30;4.97;;;2.80;;
62584;SDS011;48643;51.670;5.808;2023-04-04T03:18:57;3.88;;;2.70;;
62584;SDS011;48643;51.670;5.808;2023-04-04T03:21:24;4.32;;;2.65;;
62584;SDS011;48643;51.670;5.808;2023-04-04T03:23:53;6.00;;;2.80;;
62584;SDS011;48643;51.670;5.808;2023-04-04T03:26:20;5.53;;;3.00;;
62584;SDS011;48643;51.670;5.808;2023-04-04T03:28:47;3.55;;;2.60;;
62584;SDS011;48643;51.670;5.808;2023-04-04T03:31:14;4.93;;;2.88;;
62584;SDS011;48643;51.670;5.808;2023-04-04T03:33:42;6.70;;;3.10;;
62584;SDS011;48643;51.670;5.808;2023-04-04T03:36:10;3.83;;;2.60;;
62584;SDS011;48643;51.670;5.808;2023-04-04T03:38:38;6.97;;;2.80;;
62584;SDS011;48643;51.670;5.808;2023-04-04T03:41:06;7.05;;;2.45;;
62584;SDS011;48643;51.670;5.808;2023-04-04T03:43:33;5.15;;;2.30;;
62584;SDS011;48643;51.670;5.808;2023-04-04T03:46:01;5.07;;;2.42;;
62584;SDS011;48643;51.670;5.808;2023-04-04T03:48:29;3.63;;;2.28;;
62584;SDS011;48643;51.670;5.808;2023-04-04T03:50:56;3.40;;;2.10;;
62584;SDS011;48643;51.670;5.808;2023-04-04T03:53:24;3.67;;;1.98;;
62584;SDS011;48643;51.670;5.808;2023-04-04T03:55:52;4.47;;;2.25;;
62584;SDS011;48643;51.670;5.808;2023-04-04T03:58:21;6.50;;;2.35;;
62584;SDS011;48643;51.670;5.808;2023-04-04T04:00:49;3.83;;;2.33;;
62584;SDS011;48643;51.670;5.808;2023-04-04T04:03:16;3.85;;;2.25;;
62584;SDS011;48643;51.670;5.808;2023-04-04T04:05:44;3.83;;;2.22;;
62584;SDS011;48643;51.670;5.808;2023-04-04T04:08:12;7.70;;;2.47;;
62584;SDS011;48643;51.670;5.808;2023-04-04T04:10:39;7.22;;;2.45;;
62584;SDS011;48643;51.670;5.808;2023-04-04T04:13:06;5.30;;;2.45;;
62584;SDS011;48643;51.670;5.808;2023-04-04T04:15:33;7.53;;;2.50;;
62584;SDS011;48643;51.670;5.808;2023-04-04T04:18:04;5.35;;;2.25;;
62584;SDS011;48643;51.670;5.808;2023-04-04T04:20:31;5.13;;;2.30;;
62584;SDS011;48643;51.670;5.808;2023-04-04T04:22:58;6.00;;;2.45;;
62584;SDS011;48643;51.670;5.808;2023-04-04T04:25:25;3.35;;;2.25;;
62584;SDS011;48643;51.670;5.808;2023-04-04T04:28:01;4.90;;;2.47;;
62584;SDS011;48643;51.670;5.808;2023-04-04T04:30:29;3.70;;;2.40;;
62584;SDS011;48643;51.670;5.808;2023-04-04T04:32:56;4.95;;;2.35;;
62584;SDS011;48643;51.670;5.808;2023-04-04T04:35:30;4.15;;;2.30;;
62584;SDS011;48643;51.670;5.808;2023-04-04T04:38:00;4.45;;;2.38;;
62584;SDS011;48643;51.670;5.808;2023-04-04T04:40:27;5.53;;;2.20;;
62584;SDS011;48643;51.670;5.808;2023-04-04T04:43:01;5.55;;;2.60;;
62584;SDS011;48643;51.670;5.808;2023-04-04T04:45:28;4.93;;;2.45;;
62584;SDS011;48643;51.670;5.808;2023-04-04T04:48:04;5.40;;;2.30;;
62584;SDS011;48643;51.670;5.808;2023-04-04T04:50:37;3.97;;;2.40;;
62584;SDS011;48643;51.670;5.808;2023-04-04T04:53:06;3.60;;;2.40;;
62584;SDS011;48643;51.670;5.808;2023-04-04T04:55:33;3.92;;;2.40;;
62584;SDS011;48643;51.670;5.808;2023-04-04T04:58:05;4.05;;;2.38;;
62584;SDS011;48643;51.670;5.808;2023-04-04T05:00:32;4.35;;;2.50;;
62584;SDS011;48643;51.670;5.808;2023-04-04T05:02:59;6.82;;;2.45;;
62584;SDS011;48643;51.670;5.808;2023-04-04T05:05:34;4.07;;;2.22;;
62584;SDS011;48643;51.670;5.808;2023-04-04T05:08:05;5.50;;;2.42;;
62584;SDS011;48643;51.670;5.808;2023-04-04T05:10:36;7.60;;;2.42;;
62584;SDS011;48643;51.670;5.808;2023-04-04T05:13:05;5.03;;;2.63;;
62584;SDS011;48643;51.670;5.808;2023-04-04T05:15:39;4.35;;;2.63;;
62584;SDS011;48643;51.670;5.808;2023-04-04T05:18:07;4.47;;;2.33;;
62584;SDS011;48643;51.670;5.808;2023-04-04T05:20:34;4.00;;;2.58;;
62584;SDS011;48643;51.670;5.808;2023-04-04T05:23:03;5.13;;;2.77;;
62584;SDS011;48643;51.670;5.808;2023-04-04T05:25:35;4.60;;;2.65;;
62584;SDS011;48643;51.670;5.808;2023-04-04T05:28:03;4.70;;;2.50;;
62584;SDS011;48643;51.670;5.808;2023-04-04T05:30:30;6.30;;;2.70;;
62584;SDS011;48643;51.670;5.808;2023-04-04T05:33:20;7.88;;;2.75;;
62584;SDS011;48643;51.670;5.808;2023-04-04T05:35:59;4.55;;;2.70;;
62584;SDS011;48643;51.670;5.808;2023-04-04T05:38:28;6.25;;;2.80;;
62584;SDS011;48643;51.670;5.808;2023-04-04T05:40:56;8.65;;;3.03;;
62584;SDS011;48643;51.670;5.808;2023-04-04T05:43:24;7.18;;;3.30;;
62584;SDS011;48643;51.670;5.808;2023-04-04T05:45:59;6.78;;;3.10;;
62584;SDS011;48643;51.670;5.808;2023-04-04T05:48:28;10.45;;;4.03;;
62584;SDS011;48643;51.670;5.808;2023-04-04T05:50:55;5.57;;;3.10;;
62584;SDS011;48643;51.670;5.808;2023-04-04T05:53:34;5.68;;;3.03;;
62584;SDS011;48643;51.670;5.808;2023-04-04T05:56:01;4.60;;;3.08;;
62584;SDS011;48643;51.670;5.808;2023-04-04T05:58:31;4.88;;;2.80;;
62584;SDS011;48643;51.670;5.808;2023-04-04T06:00:59;6.20;;;3.25;;
62584;SDS011;48643;51.670;5.808;2023-04-04T06:03:27;5.60;;;2.97;;
62584;SDS011;48643;51.670;5.808;2023-04-04T06:05:56;6.40;;;3.08;;
62584;SDS011;48643;51.670;5.808;2023-04-04T06:08:23;6.68;;;4.18;;
62584;SDS011;48643;51.670;5.808;2023-04-04T06:10:50;14.20;;;4.07;;
62584;SDS011;48643;51.670;5.808;2023-04-04T06:13:16;7.57;;;4.10;;
62584;SDS011;48643;51.670;5.808;2023-04-04T06:15:49;10.23;;;3.90;;
62584;SDS011;48643;51.670;5.808;2023-04-04T06:18:19;11.00;;;4.30;;
62584;SDS011;48643;51.670;5.808;2023-04-04T06:20:46;8.30;;;3.90;;
62584;SDS011;48643;51.670;5.808;2023-04-04T06:23:15;7.78;;;4.03;;
62584;SDS011;48643;51.670;5.808;2023-04-04T06:25:44;9.52;;;3.80;;
62584;SDS011;48643;51.670;5.808;2023-04-04T06:28:13;6.40;;;3.75;;
62584;SDS011;48643;51.670;5.808;2023-04-04T06:30:44;10.00;;;4.00;;
62584;SDS011;48643;51.670;5.808;2023-04-04T06:33:13;7.90;;;3.67;;
62584;SDS011;48643;51.670;5.808;2023-04-04T06:35:44;8.63;;;4.20;;
62584;SDS011;48643;51.670;5.808;2023-04-04T06:38:13;7.28;;;4.00;;
62584;SDS011;48643;51.670;5.808;2023-04-04T06:40:39;10.27;;;3.60;;
62584;SDS011;48643;51.670;5.808;2023-04-04T06:43:07;10.65;;;4.00;;
62584;SDS011;48643;51.670;5.808;2023-04-04T06:45:41;9.63;;;4.15;;
62584;SDS011;48643;51.670;5.808;2023-04-04T06:48:07;20.55;;;4.10;;
62584;SDS011;48643;51.670;5.808;2023-04-04T06:50:35;9.13;;;3.85;;
62584;SDS011;48643;51.670;5.808;2023-04-04T06:53:06;10.55;;;3.83;;
62584;SDS011;48643;51.670;5.808;2023-04-04T06:55:33;14.63;;;4.10;;
62584;SDS011;48643;51.670;5.808;2023-04-04T06:58:00;10.32;;;4.10;;
62584;SDS011;48643;51.670;5.808;2023-04-04T07:00:28;10.98;;;4.35;;
62584;SDS011;48643;51.670;5.808;2023-04-04T07:03:00;11.55;;;3.92;;
62584;SDS011;48643;51.670;5.808;2023-04-04T07:05:27;9.25;;;3.92;;
62584;SDS011;48643;51.670;5.808;2023-04-04T07:07:54;7.32;;;3.78;;
62584;SDS011;48643;51.670;5.808;2023-04-04T07:10:22;9.80;;;3.58;;
62584;SDS011;48643;51.670;5.808;2023-04-04T07:12:50;9.88;;;3.90;;
62584;SDS011;48643;51.670;5.808;2023-04-04T07:15:17;7.95;;;3.67;;
62584;SDS011;48643;51.670;5.808;2023-04-04T07:17:44;7.20;;;3.60;;
62584;SDS011;48643;51.670;5.808;2023-04-04T07:20:11;9.73;;;3.55;;
62584;SDS011;48643;51.670;5.808;2023-04-04T07:22:39;7.38;;;3.55;;
62584;SDS011;48643;51.670;5.808;2023-04-04T07:25:06;7.53;;;3.38;;
62584;SDS011;48643;51.670;5.808;2023-04-04T07:27:33;8.02;;;3.65;;
62584;SDS011;48643;51.670;5.808;2023-04-04T07:30:01;7.97;;;3.40;;
62584;SDS011;48643;51.670;5.808;2023-04-04T07:32:29;14.38;;;3.60;;
62584;SDS011;48643;51.670;5.808;2023-04-04T07:34:56;20.15;;;3.90;;
62584;SDS011;48643;51.670;5.808;2023-04-04T07:37:23;8.88;;;3.38;;
62584;SDS011;48643;51.670;5.808;2023-04-04T07:39:51;9.93;;;3.30;;
62584;SDS011;48643;51.670;5.808;2023-04-04T07:42:18;8.95;;;3.20;;
62584;SDS011;48643;51.670;5.808;2023-04-04T07:44:48;13.35;;;3.33;;
62584;SDS011;48643;51.670;5.808;2023-04-04T07:47:16;6.18;;;3.10;;
62584;SDS011;48643;51.670;5.808;2023-04-04T07:49:43;10.02;;;3.28;;
62584;SDS011;48643;51.670;5.808;2023-04-04T07:52:10;7.53;;;2.88;;
62584;SDS011;48643;51.670;5.808;2023-04-04T07:54:37;9.23;;;2.92;;
62584;SDS011;48643;51.670;5.808;2023-04-04T07:57:05;9.15;;;3.17;;
62584;SDS011;48643;51.670;5.808;2023-04-04T07:59:35;10.20;;;3.00;;
62584;SDS011;48643;51.670;5.808;2023-04-04T08:02:02;9.70;;;2.97;;
62584;SDS011;48643;51.670;5.808;2023-04-04T08:04:29;6.43;;;2.80;;
62584;SDS011;48643;51.670;5.808;2023-04-04T08:06:56;9.82;;;3.10;;
62584;SDS011;48643;51.670;5.808;2023-04-04T08:09:23;6.47;;;2.85;;
62584;SDS011;48643;51.670;5.808;2023-04-04T08:11:50;6.05;;;2.78;;
62584;SDS011;48643;51.670;5.808;2023-04-04T08:14:17;8.15;;;2.70;;
62584;SDS011;48643;51.670;5.808;2023-04-04T08:16:44;8.38;;;2.60;;
62584;SDS011;48643;51.670;5.808;2023-04-04T08:19:11;5.78;;;2.50;;
62584;SDS011;48643;51.670;5.808;2023-04-04T08:21:38;6.82;;;2.50;;
62584;SDS011;48643;51.670;5.808;2023-04-04T08:24:05;4.90;;;2.67;;
62584;SDS011;48643;51.670;5.808;2023-04-04T08:26:33;7.43;;;3.08;;
62584;SDS011;48643;51.670;5.808;2023-04-04T08:28:59;5.18;;;2.70;;
62584;SDS011;48643;51.670;5.808;2023-04-04T08:31:27;10.85;;;3.80;;
62584;SDS011;48643;51.670;5.808;2023-04-04T08:33:55;8.55;;;3.58;;
62584;SDS011;48643;51.670;5.808;2023-04-04T08:36:21;7.68;;;3.40;;
62584;SDS011;48643;51.670;5.808;2023-04-04T08:38:48;6.18;;;3.03;;
62584;SDS011;48643;51.670;5.808;2023-04-04T08:41:15;8.10;;;3.53;;
62584;SDS011;48643;51.670;5.808;2023-04-04T08:43:42;11.18;;;3.60;;
62584;SDS011;48643;51.670;5.808;2023-04-04T08:48:39;3.65;;;2.50;;
62584;SDS011;48643;51.670;5.808;2023-04-04T08:51:07;6.63;;;2.70;;
62584;SDS011;48643;51.670;5.808;2023-04-04T08:53:36;6.82;;;2.80;;
62584;SDS011;48643;51.670;5.808;2023-04-04T08:56:04;8.55;;;3.25;;
62584;SDS011;48643;51.670;5.808;2023-04-04T08:58:31;4.15;;;2.97;;
62584;SDS011;48643;51.670;5.808;2023-04-04T09:00:58;7.40;;;3.35;;
62584;SDS011;48643;51.670;5.808;2023-04-04T09:03:26;6.00;;;2.25;;
62584;SDS011;48643;51.670;5.808;2023-04-04T09:05:53;7.40;;;2.28;;
62584;SDS011;48643;51.670;5.808;2023-04-04T09:08:20;3.80;;;3.05;;
62584;SDS011;48643;51.670;5.808;2023-04-04T09:13:17;5.13;;;2.10;;
62584;SDS011;48643;51.670;5.808;2023-04-04T09:15:47;4.05;;;2.22;;
62584;SDS011;48643;51.670;5.808;2023-04-04T09:18:16;5.18;;;2.30;;
62584;SDS011;48643;51.670;5.808;2023-04-04T09:20:45;4.03;;;2.10;;
62584;SDS011;48643;51.670;5.808;2023-04-04T09:23:13;3.75;;;3.25;;
62584;SDS011;48643;51.670;5.808;2023-04-04T09:25:44;5.33;;;3.73;;
62584;SDS011;48643;51.670;5.808;2023-04-04T09:28:18;4.45;;;1.92;;
62584;SDS011;48643;51.670;5.808;2023-04-04T09:30:47;4.17;;;2.00;;
62584;SDS011;48643;51.670;5.808;2023-04-04T09:33:14;5.53;;;2.17;;
62584;SDS011;48643;51.670;5.808;2023-04-04T09:35:43;4.32;;;3.00;;
62584;SDS011;48643;51.670;5.808;2023-04-04T09:38:24;5.85;;;1.98;;
62584;SDS011;48643;51.670;5.808;2023-04-04T09:40:53;4.68;;;2.10;;
62584;SDS011;48643;51.670;5.808;2023-04-04T09:43:20;6.05;;;2.25;;
62584;SDS011;48643;51.670;5.808;2023-04-04T09:45:49;6.03;;;1.80;;
62584;SDS011;48643;51.670;5.808;2023-04-04T09:48:26;4.68;;;1.77;;
62584;SDS011;48643;51.670;5.808;2023-04-04T09:51:02;3.42;;;2.00;;
62584;SDS011;48643;51.670;5.808;2023-04-04T09:53:34;7.07;;;2.95;;
62584;SDS011;48643;51.670;5.808;2023-04-04T09:56:02;5.53;;;2.83;;
62584;SDS011;48643;51.670;5.808;2023-04-04T09:58:29;4.45;;;1.90;;
62584;SDS011;48643;51.670;5.808;2023-04-04T10:01:06;4.90;;;3.60;;
62584;SDS011;48643;51.670;5.808;2023-04-04T10:03:35;6.18;;;2.25;;
62584;SDS011;48643;51.670;5.808;2023-04-04T10:06:03;3.50;;;1.95;;
62584;SDS011;48643;51.670;5.808;2023-04-04T10:08:33;4.47;;;1.80;;
62584;SDS011;48643;51.670;5.808;2023-04-04T10:11:01;2.95;;;1.73;;
62584;SDS011;48643;51.670;5.808;2023-04-04T10:13:36;5.07;;;3.30;;
62584;SDS011;48643;51.670;5.808;2023-04-04T10:16:09;7.38;;;3.10;;
62584;SDS011;48643;51.670;5.808;2023-04-04T10:18:37;5.25;;;3.10;;
62584;SDS011;48643;51.670;5.808;2023-04-04T10:21:06;3.88;;;2.97;;
62584;SDS011;48643;51.670;5.808;2023-04-04T10:23:36;6.28;;;3.13;;
62584;SDS011;48643;51.670;5.808;2023-04-04T10:26:04;6.05;;;3.80;;
62584;SDS011;48643;51.670;5.808;2023-04-04T10:28:31;4.65;;;3.50;;
62584;SDS011;48643;51.670;5.808;2023-04-04T10:36:50;6.93;;;4.53;;
62584;SDS011;48643;51.670;5.808;2023-04-04T10:39:26;7.78;;;4.38;;
62584;SDS011;48643;51.670;5.808;2023-04-04T10:41:58;7.80;;;4.30;;
62584;SDS011;48643;51.670;5.808;2023-04-04T10:44:31;11.07;;;4.60;;
62584;SDS011;48643;51.670;5.808;2023-04-04T10:47:13;4.03;;;1.80;;
62584;SDS011;48643;51.670;5.808;2023-04-04T10:49:44;6.00;;;1.80;;
62584;SDS011;48643;51.670;5.808;2023-04-04T10:52:18;8.65;;;1.98;;
62584;SDS011;48643;51.670;5.808;2023-04-04T10:54:48;6.32;;;5.38;;
62584;SDS011;48643;51.670;5.808;2023-04-04T10:57:16;5.30;;;4.43;;
62584;SDS011;48643;51.670;5.808;2023-04-04T11:02:42;5.60;;;1.92;;
62584;SDS011;48643;51.670;5.808;2023-04-04T11:05:29;4.00;;;2.20;;
62584;SDS011;48643;51.670;5.808;2023-04-04T11:08:21;10.13;;;5.43;;
62584;SDS011;48643;51.670;5.808;2023-04-04T11:10:51;5.20;;;1.98;;
62584;SDS011;48643;51.670;5.808;2023-04-04T11:13:19;5.05;;;1.77;;
62584;SDS011;48643;51.670;5.808;2023-04-04T11:18:44;4.80;;;1.70;;
62584;SDS011;48643;51.670;5.808;2023-04-04T11:21:19;5.63;;;2.00;;
62584;SDS011;48643;51.670;5.808;2023-04-04T11:28:59;2.88;;;1.55;;
62584;SDS011;48643;51.670;5.808;2023-04-04T11:31:28;9.60;;;2.20;;
62584;SDS011;48643;51.670;5.808;2023-04-04T11:34:08;4.07;;;2.95;;
62584;SDS011;48643;51.670;5.808;2023-04-04T11:44:26;3.42;;;1.60;;
62584;SDS011;48643;51.670;5.808;2023-04-04T11:47:29;4.50;;;1.70;;
62584;SDS011;48643;51.670;5.808;2023-04-04T11:49:49;3.03;;;1.60;;
62584;SDS011;48643;51.670;5.808;2023-04-04T11:52:18;5.03;;;1.80;;
62584;SDS011;48643;51.670;5.808;2023-04-04T11:54:45;4.63;;;1.80;;
62584;SDS011;48643;51.670;5.808;2023-04-04T11:57:13;2.97;;;1.60;;
62584;SDS011;48643;51.670;5.808;2023-04-04T12:02:09;5.13;;;1.63;;
62584;SDS011;48643;51.670;5.808;2023-04-04T12:04:37;10.57;;;2.05;;
62584;SDS011;48643;51.670;5.808;2023-04-04T12:07:09;8.30;;;1.98;;
62584;SDS011;48643;51.670;5.808;2023-04-04T12:09:36;9.70;;;2.20;;
62584;SDS011;48643;51.670;5.808;2023-04-04T12:12:03;6.22;;;1.60;;
62584;SDS011;48643;51.670;5.808;2023-04-04T12:14:32;8.43;;;1.95;;
62584;SDS011;48643;51.670;5.808;2023-04-04T12:17:01;8.35;;;1.70;;
62584;SDS011;48643;51.670;5.808;2023-04-04T12:19:28;5.28;;;1.77;;
62584;SDS011;48643;51.670;5.808;2023-04-04T12:21:55;7.97;;;1.83;;
62584;SDS011;48643;51.670;5.808;2023-04-04T12:24:23;10.88;;;1.90;;
62584;SDS011;48643;51.670;5.808;2023-04-04T12:26:50;8.50;;;1.70;;
62584;SDS011;48643;51.670;5.808;2023-04-04T12:29:19;4.68;;;1.63;;
62584;SDS011;48643;51.670;5.808;2023-04-04T12:31:47;6.80;;;2.35;;
62584;SDS011;48643;51.670;5.808;2023-04-04T12:34:15;6.57;;;2.83;;
62584;SDS011;48643;51.670;5.808;2023-04-04T12:39:14;4.78;;;2.58;;
62584;SDS011;48643;51.670;5.808;2023-04-04T12:44:28;9.25;;;2.80;;
62584;SDS011;48643;51.670;5.808;2023-04-04T12:47:05;9.75;;;2.83;;
62584;SDS011;48643;51.670;5.808;2023-04-04T12:49:40;13.82;;;2.92;;
62584;SDS011;48643;51.670;5.808;2023-04-04T12:52:18;16.65;;;3.30;;
62584;SDS011;48643;51.670;5.808;2023-04-04T12:54:47;13.70;;;2.97;;
62584;SDS011;48643;51.670;5.808;2023-04-04T12:57:33;11.50;;;2.63;;
62584;SDS011;48643;51.670;5.808;2023-04-04T13:00:01;12.63;;;3.10;;
62584;SDS011;48643;51.670;5.808;2023-04-04T13:02:31;10.40;;;3.30;;
62584;SDS011;48643;51.670;5.808;2023-04-04T13:05:01;12.98;;;3.10;;
62584;SDS011;48643;51.670;5.808;2023-04-04T13:07:30;15.77;;;2.65;;
62584;SDS011;48643;51.670;5.808;2023-04-04T13:10:01;19.92;;;2.90;;
62584;SDS011;48643;51.670;5.808;2023-04-04T13:18:32;8.82;;;2.65;;
62584;SDS011;48643;51.670;5.808;2023-04-04T13:21:03;11.23;;;2.47;;
62584;SDS011;48643;51.670;5.808;2023-04-04T13:23:33;12.02;;;2.50;;
62584;SDS011;48643;51.670;5.808;2023-04-04T13:26:02;18.10;;;3.03;;
62584;SDS011;48643;51.670;5.808;2023-04-04T13:28:30;10.43;;;2.38;;
62584;SDS011;48643;51.670;5.808;2023-04-04T13:30:57;6.38;;;2.20;;
62584;SDS011;48643;51.670;5.808;2023-04-04T13:33:28;7.60;;;2.47;;
62584;SDS011;48643;51.670;5.808;2023-04-04T13:35:55;11.40;;;2.35;;
62584;SDS011;48643;51.670;5.808;2023-04-04T13:38:22;7.25;;;2.30;;
62584;SDS011;48643;51.670;5.808;2023-04-04T13:40:52;11.88;;;2.42;;
62584;SDS011;48643;51.670;5.808;2023-04-04T13:43:20;7.35;;;2.00;;
62584;SDS011;48643;51.670;5.808;2023-04-04T13:45:46;8.40;;;2.20;;
62584;SDS011;48643;51.670;5.808;2023-04-04T13:48:13;6.80;;;2.50;;
62584;SDS011;48643;51.670;5.808;2023-04-04T13:50:43;8.07;;;2.35;;
62584;SDS011;48643;51.670;5.808;2023-04-04T13:53:12;9.10;;;2.40;;
62584;SDS011;48643;51.670;5.808;2023-04-04T13:55:39;5.38;;;2.30;;
62584;SDS011;48643;51.670;5.808;2023-04-04T13:58:26;8.35;;;2.42;;
62584;SDS011;48643;51.670;5.808;2023-04-04T14:00:53;5.45;;;2.38;;
62584;SDS011;48643;51.670;5.808;2023-04-04T14:03:22;8.70;;;2.13;;
62584;SDS011;48643;51.670;5.808;2023-04-04T14:05:48;6.53;;;2.33;;
62584;SDS011;48643;51.670;5.808;2023-04-04T14:08:15;7.93;;;2.40;;
62584;SDS011;48643;51.670;5.808;2023-04-04T14:10:42;11.13;;;2.40;;
62584;SDS011;48643;51.670;5.808;2023-04-04T14:13:09;16.48;;;2.47;;
62584;SDS011;48643;51.670;5.808;2023-04-04T14:15:36;6.85;;;2.40;;
62584;SDS011;48643;51.670;5.808;2023-04-04T14:20:32;10.18;;;2.40;;
62584;SDS011;48643;51.670;5.808;2023-04-04T14:23:01;10.20;;;2.45;;
62584;SDS011;48643;51.670;5.808;2023-04-04T14:25:28;6.93;;;2.50;;
62584;SDS011;48643;51.670;5.808;2023-04-04T14:27:54;6.93;;;2.50;;
62584;SDS011;48643;51.670;5.808;2023-04-04T14:30:21;6.28;;;2.20;;
62584;SDS011;48643;51.670;5.808;2023-04-04T14:32:48;4.22;;;2.10;;
62584;SDS011;48643;51.670;5.808;2023-04-04T14:35:16;12.18;;;2.40;;
62584;SDS011;48643;51.670;5.808;2023-04-04T14:37:43;6.10;;;2.53;;
62584;SDS011;48643;51.670;5.808;2023-04-04T14:40:10;5.32;;;2.30;;
62584;SDS011;48643;51.670;5.808;2023-04-04T14:42:37;5.07;;;2.33;;
62584;SDS011;48643;51.670;5.808;2023-04-04T14:45:04;8.30;;;2.47;;
62584;SDS011;48643;51.670;5.808;2023-04-04T14:47:33;10.05;;;2.40;;
62584;SDS011;48643;51.670;5.808;2023-04-04T14:50:00;4.50;;;2.15;;
62584;SDS011;48643;51.670;5.808;2023-04-04T14:52:27;11.52;;;2.45;;
62584;SDS011;48643;51.670;5.808;2023-04-04T14:54:54;6.00;;;2.13;;
62584;SDS011;48643;51.670;5.808;2023-04-04T14:57:22;3.72;;;2.33;;
62584;SDS011;48643;51.670;5.808;2023-04-04T14:59:49;4.45;;;2.20;;
62584;SDS011;48643;51.670;5.808;2023-04-04T15:02:16;6.88;;;2.60;;
62584;SDS011;48643;51.670;5.808;2023-04-04T15:04:43;5.78;;;2.42;;
62584;SDS011;48643;51.670;5.808;2023-04-04T15:07:10;5.18;;;2.30;;
62584;SDS011;48643;51.670;5.808;2023-04-04T15:09:37;7.00;;;2.40;;
62584;SDS011;48643;51.670;5.808;2023-04-04T15:12:04;5.57;;;2.45;;
62584;SDS011;48643;51.670;5.808;2023-04-04T15:14:30;6.95;;;2.42;;
62584;SDS011;48643;51.670;5.808;2023-04-04T15:16:57;5.88;;;2.28;;
62584;SDS011;48643;51.670;5.808;2023-04-04T15:19:24;9.02;;;2.50;;
62584;SDS011;48643;51.670;5.808;2023-04-04T15:21:51;4.55;;;2.00;;
62584;SDS011;48643;51.670;5.808;2023-04-04T15:24:18;9.57;;;2.45;;
62584;SDS011;48643;51.670;5.808;2023-04-04T15:26:45;6.53;;;2.88;;
62584;SDS011;48643;51.670;5.808;2023-04-04T15:29:12;15.23;;;4.80;;
62584;SDS011;48643;51.670;5.808;2023-04-04T15:31:40;14.35;;;5.30;;
62584;SDS011;48643;51.670;5.808;2023-04-04T15:34:08;20.30;;;5.43;;
62584;SDS011;48643;51.670;5.808;2023-04-04T15:36:35;22.48;;;5.05;;
62584;SDS011;48643;51.670;5.808;2023-04-04T15:39:01;19.27;;;5.05;;
62584;SDS011;48643;51.670;5.808;2023-04-04T15:41:28;15.35;;;4.05;;